sensor_id;sensor_type;location;lat;lon;timestamp;P1;durP1;ratioP1;P2;durP2;ratioP2
43098;SDS011;28715;51.988;6.020;2023-05-01T06:16:54;3.72;;;0.88;;
43098;SDS011;28715;51.988;6.020;2023-05-01T06:19:20;1.60;;;0.50;;
43098;SDS011;28715;51.988;6.020;2023-05-01T06:21:46;1.63;;;0.70;;
43098;SDS011;28715;51.988;6.020;2023-05-01T06:24:11;4.17;;;2.13;;
43098;SDS011;28715;51.988;6.020;2023-05-01T06:26:37;8.83;;;3.57;;
43098;SDS011;28715;51.988;6.020;2023-05-01T06:29:02;6.87;;;1.90;;
43098;SDS011;28715;51.988;6.020;2023-05-01T06:31:28;8.13;;;2.57;;
43098;SDS011;28715;51.988;6.020;2023-05-01T06:33:53;5.93;;;1.73;;
43098;SDS011;28715;51.988;6.020;2023-05-01T06:36:19;6.10;;;1.77;;
43098;SDS011;28715;51.988;6.020;2023-05-01T06:38:45;6.23;;;1.73;;
43098;SDS011;28715;51.988;6.020;2023-05-01T06:41:13;8.13;;;2.25;;
43098;SDS011;28715;51.988;6.020;2023-05-01T06:43:40;9.05;;;2.15;;
43098;SDS011;28715;51.988;6.020;2023-05-01T06:46:05;5.77;;;1.80;;
43098;SDS011;28715;51.988;6.020;2023-05-01T06:48:31;5.13;;;1.57;;
43098;SDS011;28715;51.988;6.020;2023-05-01T06:50:56;4.47;;;1.00;;
43098;SDS011;28715;51.988;6.020;2023-05-01T06:53:22;0.67;;;0.63;;
43098;SDS011;28715;51.988;6.020;2023-05-01T06:55:47;1.63;;;0.87;;
43098;SDS011;28715;51.988;6.020;2023-05-01T06:58:13;0.97;;;0.40;;
43098;SDS011;28715;51.988;6.020;2023-05-01T07:00:39;0.83;;;0.40;;
43098;SDS011;28715;51.988;6.020;2023-05-01T07:03:04;1.37;;;0.87;;
43098;SDS011;28715;51.988;6.020;2023-05-01T07:05:30;0.40;;;0.10;;
43098;SDS011;28715;51.988;6.020;2023-05-01T07:07:55;1.97;;;0.70;;
43098;SDS011;28715;51.988;6.020;2023-05-01T07:10:21;0.67;;;0.57;;
43098;SDS011;28715;51.988;6.020;2023-05-01T07:12:46;0.70;;;0.63;;
43098;SDS011;28715;51.988;6.020;2023-05-01T07:15:12;1.70;;;1.17;;
43098;SDS011;28715;51.988;6.020;2023-05-01T07:17:40;0.85;;;0.68;;
43098;SDS011;28715;51.988;6.020;2023-05-01T07:20:05;9.23;;;4.57;;
43098;SDS011;28715;51.988;6.020;2023-05-01T07:22:31;9.57;;;4.28;;
43098;SDS011;28715;51.988;6.020;2023-05-01T07:24:57;11.60;;;4.07;;
43098;SDS011;28715;51.988;6.020;2023-05-01T07:27:25;7.30;;;2.40;;
43098;SDS011;28715;51.988;6.020;2023-05-01T07:29:50;6.73;;;2.17;;
43098;SDS011;28715;51.988;6.020;2023-05-01T07:32:16;7.13;;;2.33;;
43098;SDS011;28715;51.988;6.020;2023-05-01T07:34:41;6.00;;;2.37;;
43098;SDS011;28715;51.988;6.020;2023-05-01T07:37:07;11.50;;;2.00;;
43098;SDS011;28715;51.988;6.020;2023-05-01T07:39:32;7.77;;;1.80;;
43098;SDS011;28715;51.988;6.020;2023-05-01T07:41:58;7.43;;;2.30;;
43098;SDS011;28715;51.988;6.020;2023-05-01T07:44:24;9.10;;;3.20;;
43098;SDS011;28715;51.988;6.020;2023-05-01T07:46:49;11.20;;;5.20;;
43098;SDS011;28715;51.988;6.020;2023-05-01T07:49:15;14.00;;;7.67;;
43098;SDS011;28715;51.988;6.020;2023-05-01T07:51:40;15.13;;;7.50;;
43098;SDS011;28715;51.988;6.020;2023-05-01T07:54:06;9.02;;;5.65;;
43098;SDS011;28715;51.988;6.020;2023-05-01T07:56:32;9.50;;;6.17;;
43098;SDS011;28715;51.988;6.020;2023-05-01T07:58:58;11.83;;;6.80;;
43098;SDS011;28715;51.988;6.020;2023-05-01T08:01:23;13.10;;;6.63;;
43098;SDS011;28715;51.988;6.020;2023-05-01T08:03:49;11.13;;;6.87;;
43098;SDS011;28715;51.988;6.020;2023-05-01T08:06:15;9.77;;;6.20;;
43098;SDS011;28715;51.988;6.020;2023-05-01T08:08:40;12.87;;;6.43;;
43098;SDS011;28715;51.988;6.020;2023-05-01T08:11:07;11.93;;;6.73;;
43098;SDS011;28715;51.988;6.020;2023-05-01T08:13:33;9.85;;;6.20;;
43098;SDS011;28715;51.988;6.020;2023-05-01T08:16:00;9.63;;;6.33;;
43098;SDS011;28715;51.988;6.020;2023-05-01T08:18:26;11.95;;;6.82;;
43098;SDS011;28715;51.988;6.020;2023-05-01T08:20:52;11.20;;;5.97;;
43098;SDS011;28715;51.988;6.020;2023-05-01T08:23:18;10.57;;;6.40;;
43098;SDS011;28715;51.988;6.020;2023-05-01T08:25:43;10.03;;;6.47;;
43098;SDS011;28715;51.988;6.020;2023-05-01T08:28:14;11.05;;;6.38;;
43098;SDS011;28715;51.988;6.020;2023-05-01T08:30:40;11.00;;;6.77;;
43098;SDS011;28715;51.988;6.020;2023-05-01T08:33:06;11.03;;;6.00;;
43098;SDS011;28715;51.988;6.020;2023-05-01T08:35:32;11.03;;;6.90;;
43098;SDS011;28715;51.988;6.020;2023-05-01T08:37:57;10.17;;;6.13;;
43098;SDS011;28715;51.988;6.020;2023-05-01T08:40:23;10.50;;;6.80;;
43098;SDS011;28715;51.988;6.020;2023-05-01T08:42:50;10.38;;;6.80;;
43098;SDS011;28715;51.988;6.020;2023-05-01T08:45:16;9.77;;;7.17;;
43098;SDS011;28715;51.988;6.020;2023-05-01T08:47:45;15.60;;;8.18;;
43098;SDS011;28715;51.988;6.020;2023-05-01T08:50:11;9.75;;;6.07;;
43098;SDS011;28715;51.988;6.020;2023-05-01T08:52:41;12.23;;;6.75;;
43098;SDS011;28715;51.988;6.020;2023-05-01T08:55:11;12.38;;;7.22;;
43098;SDS011;28715;51.988;6.020;2023-05-01T08:57:44;11.60;;;6.50;;
43098;SDS011;28715;51.988;6.020;2023-05-01T09:00:12;9.73;;;6.17;;
43098;SDS011;28715;51.988;6.020;2023-05-01T09:02:42;7.97;;;5.67;;
43098;SDS011;28715;51.988;6.020;2023-05-01T09:05:10;10.07;;;6.13;;
43098;SDS011;28715;51.988;6.020;2023-05-01T09:07:36;9.87;;;6.37;;
43098;SDS011;28715;51.988;6.020;2023-05-01T09:10:03;9.83;;;6.37;;
43098;SDS011;28715;51.988;6.020;2023-05-01T09:12:29;11.27;;;6.13;;
43098;SDS011;28715;51.988;6.020;2023-05-01T09:14:59;6.63;;;2.20;;
43098;SDS011;28715;51.988;6.020;2023-05-01T09:17:26;8.50;;;2.97;;
43098;SDS011;28715;51.988;6.020;2023-05-01T09:19:55;9.97;;;2.33;;
43098;SDS011;28715;51.988;6.020;2023-05-01T09:22:20;9.97;;;5.87;;
43098;SDS011;28715;51.988;6.020;2023-05-01T09:24:46;21.57;;;2.90;;
43098;SDS011;28715;51.988;6.020;2023-05-01T09:27:12;12.20;;;5.40;;
43098;SDS011;28715;51.988;6.020;2023-05-01T09:29:42;8.80;;;2.10;;
43098;SDS011;28715;51.988;6.020;2023-05-01T09:34:48;2.88;;;0.75;;
43098;SDS011;28715;51.988;6.020;2023-05-01T09:40:03;0.32;;;0.30;;
43098;SDS011;28715;51.988;6.020;2023-05-01T09:42:31;2.30;;;0.63;;
43098;SDS011;28715;51.988;6.020;2023-05-01T09:44:58;0.87;;;0.40;;
43098;SDS011;28715;51.988;6.020;2023-05-01T09:47:28;0.80;;;0.50;;
43098;SDS011;28715;51.988;6.020;2023-05-01T09:49:55;1.80;;;0.20;;
43098;SDS011;28715;51.988;6.020;2023-05-01T09:52:30;0.53;;;0.40;;
43098;SDS011;28715;51.988;6.020;2023-05-01T09:57:39;1.17;;;0.50;;
43098;SDS011;28715;51.988;6.020;2023-05-01T10:00:06;0.00;;;0.00;;
43098;SDS011;28715;51.988;6.020;2023-05-01T10:02:34;0.17;;;0.07;;
43098;SDS011;28715;51.988;6.020;2023-05-01T10:05:00;0.33;;;0.23;;
43098;SDS011;28715;51.988;6.020;2023-05-01T10:07:26;0.23;;;0.13;;
43098;SDS011;28715;51.988;6.020;2023-05-01T10:09:53;3.40;;;1.53;;
43098;SDS011;28715;51.988;6.020;2023-05-01T10:12:21;0.55;;;0.55;;
43098;SDS011;28715;51.988;6.020;2023-05-01T10:14:51;0.47;;;0.37;;
43098;SDS011;28715;51.988;6.020;2023-05-01T10:17:18;0.30;;;0.20;;
43098;SDS011;28715;51.988;6.020;2023-05-01T10:19:44;0.40;;;0.30;;
43098;SDS011;28715;51.988;6.020;2023-05-01T10:22:11;0.57;;;0.57;;
43098;SDS011;28715;51.988;6.020;2023-05-01T10:24:36;0.30;;;0.17;;
43098;SDS011;28715;51.988;6.020;2023-05-01T10:27:03;0.27;;;0.10;;
43098;SDS011;28715;51.988;6.020;2023-05-01T10:29:32;0.90;;;0.47;;
43098;SDS011;28715;51.988;6.020;2023-05-01T10:32:00;0.13;;;0.00;;
43098;SDS011;28715;51.988;6.020;2023-05-01T10:34:31;11.23;;;0.60;;
43098;SDS011;28715;51.988;6.020;2023-05-01T10:37:07;0.20;;;0.03;;
43098;SDS011;28715;51.988;6.020;2023-05-01T10:39:37;0.50;;;0.37;;
43098;SDS011;28715;51.988;6.020;2023-05-01T10:42:06;0.93;;;0.43;;
43098;SDS011;28715;51.988;6.020;2023-05-01T10:44:38;0.40;;;0.20;;
43098;SDS011;28715;51.988;6.020;2023-05-01T10:47:47;0.20;;;0.10;;
43098;SDS011;28715;51.988;6.020;2023-05-01T10:50:02;4.13;;;0.80;;
43098;SDS011;28715;51.988;6.020;2023-05-01T10:55:40;0.10;;;0.10;;
43098;SDS011;28715;51.988;6.020;2023-05-01T10:58:08;0.50;;;0.47;;
43098;SDS011;28715;51.988;6.020;2023-05-01T11:00:38;6.90;;;1.33;;
43098;SDS011;28715;51.988;6.020;2023-05-01T11:08:35;0.50;;;0.13;;
43098;SDS011;28715;51.988;6.020;2023-05-01T11:14:20;0.70;;;0.40;;
43098;SDS011;28715;51.988;6.020;2023-05-01T11:16:42;1.20;;;0.70;;
43098;SDS011;28715;51.988;6.020;2023-05-01T11:21:44;0.10;;;0.00;;
43098;SDS011;28715;51.988;6.020;2023-05-01T11:24:11;0.37;;;0.20;;
43098;SDS011;28715;51.988;6.020;2023-05-01T11:26:37;0.47;;;0.20;;
43098;SDS011;28715;51.988;6.020;2023-05-01T11:29:04;2.70;;;1.07;;
43098;SDS011;28715;51.988;6.020;2023-05-01T11:31:31;0.20;;;0.17;;
43098;SDS011;28715;51.988;6.020;2023-05-01T11:33:57;0.10;;;0.10;;
43098;SDS011;28715;51.988;6.020;2023-05-01T11:36:24;0.60;;;0.40;;
43098;SDS011;28715;51.988;6.020;2023-05-01T11:38:51;0.20;;;0.20;;
43098;SDS011;28715;51.988;6.020;2023-05-01T11:41:21;0.57;;;0.27;;
43098;SDS011;28715;51.988;6.020;2023-05-01T11:43:54;0.47;;;0.40;;
43098;SDS011;28715;51.988;6.020;2023-05-01T11:46:29;0.83;;;0.47;;
43098;SDS011;28715;51.988;6.020;2023-05-01T11:48:57;0.27;;;0.27;;
43098;SDS011;28715;51.988;6.020;2023-05-01T11:51:24;0.33;;;0.17;;
43098;SDS011;28715;51.988;6.020;2023-05-01T11:56:27;0.20;;;0.10;;
43098;SDS011;28715;51.988;6.020;2023-05-01T11:58:58;0.47;;;0.23;;
43098;SDS011;28715;51.988;6.020;2023-05-01T12:01:33;0.47;;;0.20;;
43098;SDS011;28715;51.988;6.020;2023-05-01T12:04:00;0.77;;;0.27;;
43098;SDS011;28715;51.988;6.020;2023-05-01T12:06:42;1.10;;;0.30;;
43098;SDS011;28715;51.988;6.020;2023-05-01T12:11:49;2.63;;;0.20;;
43098;SDS011;28715;51.988;6.020;2023-05-01T12:14:15;3.90;;;1.43;;
43098;SDS011;28715;51.988;6.020;2023-05-01T12:16:42;0.00;;;0.00;;
43098;SDS011;28715;51.988;6.020;2023-05-01T12:19:08;0.10;;;0.10;;
43098;SDS011;28715;51.988;6.020;2023-05-01T12:21:36;0.33;;;0.10;;
43098;SDS011;28715;51.988;6.020;2023-05-01T12:24:12;0.83;;;0.30;;
43098;SDS011;28715;51.988;6.020;2023-05-01T12:26:42;1.33;;;0.30;;
43098;SDS011;28715;51.988;6.020;2023-05-01T12:29:08;0.40;;;0.33;;
43098;SDS011;28715;51.988;6.020;2023-05-01T12:31:35;0.30;;;0.20;;
43098;SDS011;28715;51.988;6.020;2023-05-01T12:34:09;0.00;;;0.00;;
43098;SDS011;28715;51.988;6.020;2023-05-01T12:36:35;0.37;;;0.27;;
43098;SDS011;28715;51.988;6.020;2023-05-01T12:41:38;0.57;;;0.10;;
43098;SDS011;28715;51.988;6.020;2023-05-01T12:44:22;0.30;;;0.23;;
43098;SDS011;28715;51.988;6.020;2023-05-01T12:49:18;0.17;;;0.17;;
43098;SDS011;28715;51.988;6.020;2023-05-01T12:51:48;0.30;;;0.30;;
43098;SDS011;28715;51.988;6.020;2023-05-01T12:54:33;1.30;;;0.33;;
43098;SDS011;28715;51.988;6.020;2023-05-01T12:57:09;0.08;;;0.00;;
43098;SDS011;28715;51.988;6.020;2023-05-01T12:59:39;0.30;;;0.03;;
43098;SDS011;28715;51.988;6.020;2023-05-01T13:02:07;1.70;;;0.20;;
43098;SDS011;28715;51.988;6.020;2023-05-01T13:04:37;0.27;;;0.13;;
43098;SDS011;28715;51.988;6.020;2023-05-01T13:07:13;0.70;;;0.17;;
43098;SDS011;28715;51.988;6.020;2023-05-01T13:09:53;4.20;;;0.60;;
43098;SDS011;28715;51.988;6.020;2023-05-01T13:14:45;0.00;;;0.00;;
43098;SDS011;28715;51.988;6.020;2023-05-01T13:17:11;0.60;;;0.30;;
43098;SDS011;28715;51.988;6.020;2023-05-01T13:19:45;0.10;;;0.00;;
43098;SDS011;28715;51.988;6.020;2023-05-01T13:22:18;0.57;;;0.20;;
43098;SDS011;28715;51.988;6.020;2023-05-01T13:24:52;0.00;;;0.00;;
43098;SDS011;28715;51.988;6.020;2023-05-01T13:27:19;0.47;;;0.40;;
43098;SDS011;28715;51.988;6.020;2023-05-01T13:29:55;0.53;;;0.27;;
43098;SDS011;28715;51.988;6.020;2023-05-01T13:32:23;0.00;;;0.00;;
43098;SDS011;28715;51.988;6.020;2023-05-01T13:34:49;0.17;;;0.00;;
43098;SDS011;28715;51.988;6.020;2023-05-01T13:37:15;0.10;;;0.10;;
43098;SDS011;28715;51.988;6.020;2023-05-01T13:39:41;0.10;;;0.07;;
43098;SDS011;28715;51.988;6.020;2023-05-01T13:42:10;0.00;;;0.00;;
43098;SDS011;28715;51.988;6.020;2023-05-01T13:44:41;0.30;;;0.10;;
43098;SDS011;28715;51.988;6.020;2023-05-01T13:47:14;0.00;;;0.00;;
43098;SDS011;28715;51.988;6.020;2023-05-01T13:49:41;0.47;;;0.20;;
43098;SDS011;28715;51.988;6.020;2023-05-01T13:52:10;0.13;;;0.10;;
43098;SDS011;28715;51.988;6.020;2023-05-01T13:54:41;0.47;;;0.20;;
43098;SDS011;28715;51.988;6.020;2023-05-01T13:57:07;0.10;;;0.10;;
43098;SDS011;28715;51.988;6.020;2023-05-01T13:59:35;0.13;;;0.03;;
43098;SDS011;28715;51.988;6.020;2023-05-01T14:02:46;0.10;;;0.10;;
43098;SDS011;28715;51.988;6.020;2023-05-01T14:04:53;0.10;;;0.10;;
43098;SDS011;28715;51.988;6.020;2023-05-01T14:07:20;0.00;;;0.00;;
43098;SDS011;28715;51.988;6.020;2023-05-01T14:09:51;0.20;;;0.10;;
43098;SDS011;28715;51.988;6.020;2023-05-01T14:12:23;0.33;;;0.20;;
43098;SDS011;28715;51.988;6.020;2023-05-01T14:14:53;0.73;;;0.10;;
43098;SDS011;28715;51.988;6.020;2023-05-01T14:17:24;0.03;;;0.00;;
43098;SDS011;28715;51.988;6.020;2023-05-01T14:19:53;0.50;;;0.33;;
43098;SDS011;28715;51.988;6.020;2023-05-01T14:22:20;0.77;;;0.47;;
43098;SDS011;28715;51.988;6.020;2023-05-01T14:24:46;0.87;;;0.33;;
43098;SDS011;28715;51.988;6.020;2023-05-01T14:27:12;2.73;;;0.60;;
43098;SDS011;28715;51.988;6.020;2023-05-01T14:29:40;0.50;;;0.37;;
43098;SDS011;28715;51.988;6.020;2023-05-01T14:32:07;2.60;;;0.95;;
43098;SDS011;28715;51.988;6.020;2023-05-01T14:34:34;0.30;;;0.20;;
43098;SDS011;28715;51.988;6.020;2023-05-01T14:37:03;1.08;;;0.45;;
43098;SDS011;28715;51.988;6.020;2023-05-01T14:39:30;2.50;;;0.50;;
43098;SDS011;28715;51.988;6.020;2023-05-01T14:41:56;5.23;;;1.00;;
43098;SDS011;28715;51.988;6.020;2023-05-01T14:44:24;0.10;;;0.10;;
43098;SDS011;28715;51.988;6.020;2023-05-01T14:46:51;0.10;;;0.10;;
43098;SDS011;28715;51.988;6.020;2023-05-01T14:49:18;0.30;;;0.20;;
43098;SDS011;28715;51.988;6.020;2023-05-01T14:51:45;0.70;;;0.50;;
43098;SDS011;28715;51.988;6.020;2023-05-01T14:54:11;0.70;;;0.57;;
43098;SDS011;28715;51.988;6.020;2023-05-01T14:56:38;0.37;;;0.27;;
43098;SDS011;28715;51.988;6.020;2023-05-01T14:59:04;0.20;;;0.20;;
43098;SDS011;28715;51.988;6.020;2023-05-01T15:01:30;1.27;;;0.97;;
43098;SDS011;28715;51.988;6.020;2023-05-01T15:03:56;0.20;;;0.20;;
43098;SDS011;28715;51.988;6.020;2023-05-01T15:06:21;0.70;;;0.30;;
43098;SDS011;28715;51.988;6.020;2023-05-01T15:08:48;0.10;;;0.10;;
43098;SDS011;28715;51.988;6.020;2023-05-01T15:11:14;0.53;;;0.20;;
43098;SDS011;28715;51.988;6.020;2023-05-01T15:13:42;2.37;;;0.60;;
43098;SDS011;28715;51.988;6.020;2023-05-01T15:16:13;0.70;;;0.53;;
43098;SDS011;28715;51.988;6.020;2023-05-01T15:18:38;0.63;;;0.33;;
43098;SDS011;28715;51.988;6.020;2023-05-01T15:21:04;0.40;;;0.40;;
43098;SDS011;28715;51.988;6.020;2023-05-01T15:23:30;0.37;;;0.13;;
43098;SDS011;28715;51.988;6.020;2023-05-01T15:25:56;0.10;;;0.10;;
43098;SDS011;28715;51.988;6.020;2023-05-01T15:28:22;0.63;;;0.47;;
43098;SDS011;28715;51.988;6.020;2023-05-01T15:30:50;0.30;;;0.00;;
43098;SDS011;28715;51.988;6.020;2023-05-01T15:33:16;0.40;;;0.30;;
43098;SDS011;28715;51.988;6.020;2023-05-01T15:35:43;0.20;;;0.10;;
43098;SDS011;28715;51.988;6.020;2023-05-01T15:38:09;0.10;;;0.07;;
43098;SDS011;28715;51.988;6.020;2023-05-01T15:40:35;0.37;;;0.27;;
43098;SDS011;28715;51.988;6.020;2023-05-01T15:43:02;0.10;;;0.10;;
43098;SDS011;28715;51.988;6.020;2023-05-01T15:45:29;0.93;;;0.43;;
43098;SDS011;28715;51.988;6.020;2023-05-01T15:47:55;0.20;;;0.20;;
43098;SDS011;28715;51.988;6.020;2023-05-01T15:50:20;0.00;;;0.00;;
43098;SDS011;28715;51.988;6.020;2023-05-01T15:52:47;0.30;;;0.30;;
43098;SDS011;28715;51.988;6.020;2023-05-01T15:55:13;0.00;;;0.00;;
43098;SDS011;28715;51.988;6.020;2023-05-01T15:57:39;0.30;;;0.20;;
43098;SDS011;28715;51.988;6.020;2023-05-01T16:00:05;0.13;;;0.13;;
43098;SDS011;28715;51.988;6.020;2023-05-01T16:02:32;0.57;;;0.47;;
43098;SDS011;28715;51.988;6.020;2023-05-01T16:04:58;0.53;;;0.30;;
43098;SDS011;28715;51.988;6.020;2023-05-01T16:07:24;0.07;;;0.07;;
43098;SDS011;28715;51.988;6.020;2023-05-01T16:09:52;0.67;;;0.30;;
43098;SDS011;28715;51.988;6.020;2023-05-01T16:12:19;0.63;;;0.30;;
43098;SDS011;28715;51.988;6.020;2023-05-01T16:14:45;0.93;;;0.30;;
43098;SDS011;28715;51.988;6.020;2023-05-01T16:17:12;0.37;;;0.20;;
43098;SDS011;28715;51.988;6.020;2023-05-01T16:19:39;0.00;;;0.00;;
43098;SDS011;28715;51.988;6.020;2023-05-01T16:22:05;0.13;;;0.13;;
43098;SDS011;28715;51.988;6.020;2023-05-01T16:24:31;1.13;;;0.37;;
43098;SDS011;28715;51.988;6.020;2023-05-01T16:26:57;0.90;;;0.43;;
43098;SDS011;28715;51.988;6.020;2023-05-01T16:29:23;0.40;;;0.20;;
43098;SDS011;28715;51.988;6.020;2023-05-01T16:31:49;0.00;;;0.00;;
43098;SDS011;28715;51.988;6.020;2023-05-01T16:34:15;0.73;;;0.07;;
43098;SDS011;28715;51.988;6.020;2023-05-01T16:36:42;0.20;;;0.10;;
43098;SDS011;28715;51.988;6.020;2023-05-01T16:39:12;0.00;;;0.00;;
43098;SDS011;28715;51.988;6.020;2023-05-01T16:41:44;1.03;;;0.13;;
43098;SDS011;28715;51.988;6.020;2023-05-01T16:44:11;1.80;;;0.63;;
43098;SDS011;28715;51.988;6.020;2023-05-01T16:46:40;1.20;;;0.20;;
43098;SDS011;28715;51.988;6.020;2023-05-01T16:49:18;0.10;;;0.10;;
43098;SDS011;28715;51.988;6.020;2023-05-01T16:51:44;0.70;;;0.50;;
43098;SDS011;28715;51.988;6.020;2023-05-01T16:54:09;4.00;;;0.53;;
43098;SDS011;28715;51.988;6.020;2023-05-01T16:56:35;0.57;;;0.20;;
43098;SDS011;28715;51.988;6.020;2023-05-01T16:59:01;0.00;;;0.00;;
43098;SDS011;28715;51.988;6.020;2023-05-01T17:01:27;3.20;;;0.53;;
43098;SDS011;28715;51.988;6.020;2023-05-01T17:03:52;1.30;;;0.40;;
43098;SDS011;28715;51.988;6.020;2023-05-01T17:06:18;1.20;;;0.63;;
43098;SDS011;28715;51.988;6.020;2023-05-01T17:08:43;0.20;;;0.10;;
43098;SDS011;28715;51.988;6.020;2023-05-01T17:11:09;4.83;;;1.23;;
43098;SDS011;28715;51.988;6.020;2023-05-01T17:13:35;1.20;;;0.47;;
43098;SDS011;28715;51.988;6.020;2023-05-01T17:16:01;1.13;;;0.40;;
43098;SDS011;28715;51.988;6.020;2023-05-01T17:18:26;0.20;;;0.20;;
43098;SDS011;28715;51.988;6.020;2023-05-01T17:20:52;2.23;;;0.60;;
43098;SDS011;28715;51.988;6.020;2023-05-01T17:23:18;1.20;;;0.87;;
43098;SDS011;28715;51.988;6.020;2023-05-01T17:25:43;0.10;;;0.10;;
43098;SDS011;28715;51.988;6.020;2023-05-01T17:28:09;0.83;;;0.30;;
43098;SDS011;28715;51.988;6.020;2023-05-01T17:30:35;0.13;;;0.13;;
43098;SDS011;28715;51.988;6.020;2023-05-01T17:33:00;0.50;;;0.30;;
43098;SDS011;28715;51.988;6.020;2023-05-01T17:35:26;0.80;;;0.50;;
43098;SDS011;28715;51.988;6.020;2023-05-01T17:37:51;0.50;;;0.37;;
43098;SDS011;28715;51.988;6.020;2023-05-01T17:40:17;0.70;;;0.30;;
43098;SDS011;28715;51.988;6.020;2023-05-01T17:42:44;0.40;;;0.10;;
43098;SDS011;28715;51.988;6.020;2023-05-01T17:45:10;2.47;;;0.50;;
43098;SDS011;28715;51.988;6.020;2023-05-01T17:47:36;1.37;;;0.53;;
43098;SDS011;28715;51.988;6.020;2023-05-01T17:52:32;2.13;;;1.17;;
43098;SDS011;28715;51.988;6.020;2023-05-01T17:54:57;0.20;;;0.20;;
43098;SDS011;28715;51.988;6.020;2023-05-01T17:57:24;0.30;;;0.13;;
43098;SDS011;28715;51.988;6.020;2023-05-01T17:59:50;1.35;;;0.47;;
43098;SDS011;28715;51.988;6.020;2023-05-01T18:02:16;3.90;;;1.40;;
43098;SDS011;28715;51.988;6.020;2023-05-01T18:04:42;0.87;;;0.47;;
43098;SDS011;28715;51.988;6.020;2023-05-01T18:07:07;1.33;;;0.97;;
43098;SDS011;28715;51.988;6.020;2023-05-01T18:09:33;0.93;;;0.33;;
43098;SDS011;28715;51.988;6.020;2023-05-01T18:11:58;1.90;;;0.97;;
43098;SDS011;28715;51.988;6.020;2023-05-01T18:14:24;0.33;;;0.20;;
43098;SDS011;28715;51.988;6.020;2023-05-01T18:16:49;2.80;;;0.50;;
43098;SDS011;28715;51.988;6.020;2023-05-01T18:19:16;2.25;;;0.40;;
43098;SDS011;28715;51.988;6.020;2023-05-01T18:21:42;3.80;;;1.83;;
43098;SDS011;28715;51.988;6.020;2023-05-01T18:24:07;1.50;;;0.80;;
43098;SDS011;28715;51.988;6.020;2023-05-01T18:26:36;0.20;;;0.20;;
43098;SDS011;28715;51.988;6.020;2023-05-01T18:29:01;2.27;;;1.00;;
43098;SDS011;28715;51.988;6.020;2023-05-01T18:31:27;1.53;;;1.20;;
43098;SDS011;28715;51.988;6.020;2023-05-01T18:33:52;10.23;;;1.30;;
43098;SDS011;28715;51.988;6.020;2023-05-01T18:36:19;3.95;;;1.33;;
43098;SDS011;28715;51.988;6.020;2023-05-01T18:38:44;1.03;;;0.70;;
43098;SDS011;28715;51.988;6.020;2023-05-01T18:41:10;0.60;;;0.40;;
43098;SDS011;28715;51.988;6.020;2023-05-01T18:43:35;2.90;;;1.60;;
43098;SDS011;28715;51.988;6.020;2023-05-01T18:46:01;2.30;;;0.60;;
43098;SDS011;28715;51.988;6.020;2023-05-01T18:48:26;0.87;;;0.57;;
43098;SDS011;28715;51.988;6.020;2023-05-01T18:50:52;2.73;;;1.43;;
43098;SDS011;28715;51.988;6.020;2023-05-01T18:53:18;5.40;;;1.47;;
43098;SDS011;28715;51.988;6.020;2023-05-01T18:55:43;2.40;;;1.37;;
43098;SDS011;28715;51.988;6.020;2023-05-01T18:58:09;1.33;;;1.10;;
43098;SDS011;28715;51.988;6.020;2023-05-01T19:00:35;0.97;;;0.77;;
43098;SDS011;28715;51.988;6.020;2023-05-01T19:03:00;2.27;;;0.97;;
43098;SDS011;28715;51.988;6.020;2023-05-01T19:05:26;1.33;;;0.80;;
43098;SDS011;28715;51.988;6.020;2023-05-01T19:07:51;3.77;;;1.57;;
43098;SDS011;28715;51.988;6.020;2023-05-01T19:10:19;3.70;;;1.05;;
43098;SDS011;28715;51.988;6.020;2023-05-01T19:12:44;1.30;;;0.83;;
43098;SDS011;28715;51.988;6.020;2023-05-01T19:15:10;2.37;;;1.20;;
43098;SDS011;28715;51.988;6.020;2023-05-01T19:17:36;0.87;;;0.53;;
43098;SDS011;28715;51.988;6.020;2023-05-01T19:20:01;2.47;;;1.03;;
43098;SDS011;28715;51.988;6.020;2023-05-01T19:22:28;0.50;;;0.50;;
43098;SDS011;28715;51.988;6.020;2023-05-01T19:24:53;0.90;;;0.70;;
43098;SDS011;28715;51.988;6.020;2023-05-01T19:27:22;2.30;;;1.30;;
43098;SDS011;28715;51.988;6.020;2023-05-01T19:29:49;3.67;;;0.88;;
43098;SDS011;28715;51.988;6.020;2023-05-01T19:32:14;4.37;;;1.40;;
43098;SDS011;28715;51.988;6.020;2023-05-01T19:34:40;1.60;;;1.40;;
43098;SDS011;28715;51.988;6.020;2023-05-01T19:37:06;2.63;;;1.90;;
43098;SDS011;28715;51.988;6.020;2023-05-01T19:39:32;1.73;;;1.00;;
43098;SDS011;28715;51.988;6.020;2023-05-01T19:41:57;1.40;;;0.67;;
43098;SDS011;28715;51.988;6.020;2023-05-01T19:44:23;0.40;;;0.33;;
43098;SDS011;28715;51.988;6.020;2023-05-01T19:46:48;3.00;;;1.00;;
43098;SDS011;28715;51.988;6.020;2023-05-01T19:49:14;3.10;;;1.20;;
43098;SDS011;28715;51.988;6.020;2023-05-01T19:51:43;3.83;;;1.33;;
43098;SDS011;28715;51.988;6.020;2023-05-01T19:54:09;3.28;;;1.00;;
43098;SDS011;28715;51.988;6.020;2023-05-01T19:56:34;1.30;;;0.67;;
43098;SDS011;28715;51.988;6.020;2023-05-01T19:59:02;1.75;;;1.08;;
43098;SDS011;28715;51.988;6.020;2023-05-01T20:01:27;1.90;;;1.03;;
43098;SDS011;28715;51.988;6.020;2023-05-01T20:03:55;0.68;;;0.57;;
43098;SDS011;28715;51.988;6.020;2023-05-01T20:06:20;1.47;;;0.87;;
43098;SDS011;28715;51.988;6.020;2023-05-01T20:08:46;3.23;;;1.90;;
43098;SDS011;28715;51.988;6.020;2023-05-01T20:11:12;1.33;;;1.10;;
43098;SDS011;28715;51.988;6.020;2023-05-01T20:13:38;2.23;;;1.33;;
43098;SDS011;28715;51.988;6.020;2023-05-01T20:16:03;1.30;;;1.00;;
43098;SDS011;28715;51.988;6.020;2023-05-01T20:18:29;2.93;;;1.27;;
43098;SDS011;28715;51.988;6.020;2023-05-01T20:20:55;2.43;;;0.73;;
43098;SDS011;28715;51.988;6.020;2023-05-01T20:23:20;2.30;;;0.60;;
43098;SDS011;28715;51.988;6.020;2023-05-01T20:25:48;1.23;;;0.77;;
43098;SDS011;28715;51.988;6.020;2023-05-01T20:28:15;2.40;;;1.33;;
43098;SDS011;28715;51.988;6.020;2023-05-01T20:30:42;2.00;;;0.80;;
43098;SDS011;28715;51.988;6.020;2023-05-01T20:33:08;2.75;;;0.82;;
43098;SDS011;28715;51.988;6.020;2023-05-01T20:35:34;1.40;;;0.60;;
43098;SDS011;28715;51.988;6.020;2023-05-01T20:38:00;1.00;;;0.67;;
43098;SDS011;28715;51.988;6.020;2023-05-01T20:40:26;1.73;;;1.40;;
43098;SDS011;28715;51.988;6.020;2023-05-01T20:42:53;1.58;;;1.17;;
43098;SDS011;28715;51.988;6.020;2023-05-01T20:45:19;2.05;;;1.23;;
43098;SDS011;28715;51.988;6.020;2023-05-01T20:47:46;1.50;;;0.93;;
43098;SDS011;28715;51.988;6.020;2023-05-01T20:50:12;2.95;;;1.58;;
43098;SDS011;28715;51.988;6.020;2023-05-01T20:52:38;2.00;;;1.13;;
43098;SDS011;28715;51.988;6.020;2023-05-01T20:55:04;1.23;;;1.13;;
43098;SDS011;28715;51.988;6.020;2023-05-01T20:57:31;4.53;;;1.15;;
43098;SDS011;28715;51.988;6.020;2023-05-01T20:59:56;4.18;;;1.48;;
43098;SDS011;28715;51.988;6.020;2023-05-01T21:02:22;2.17;;;1.35;;
43098;SDS011;28715;51.988;6.020;2023-05-01T21:04:48;7.40;;;2.03;;
43098;SDS011;28715;51.988;6.020;2023-05-01T21:07:16;2.25;;;1.08;;
43098;SDS011;28715;51.988;6.020;2023-05-01T21:09:42;1.77;;;0.90;;
43098;SDS011;28715;51.988;6.020;2023-05-01T21:12:09;0.98;;;0.52;;
43098;SDS011;28715;51.988;6.020;2023-05-01T21:14:34;4.37;;;1.27;;
43098;SDS011;28715;51.988;6.020;2023-05-01T21:17:02;0.90;;;0.90;;
43098;SDS011;28715;51.988;6.020;2023-05-01T21:19:27;3.97;;;1.98;;
43098;SDS011;28715;51.988;6.020;2023-05-01T21:21:53;2.90;;;1.47;;
43098;SDS011;28715;51.988;6.020;2023-05-01T21:24:22;2.63;;;1.70;;
43098;SDS011;28715;51.988;6.020;2023-05-01T21:26:52;3.83;;;1.00;;
43098;SDS011;28715;51.988;6.020;2023-05-01T21:29:18;1.90;;;0.90;;
43098;SDS011;28715;51.988;6.020;2023-05-01T21:31:44;4.00;;;1.48;;
43098;SDS011;28715;51.988;6.020;2023-05-01T21:34:10;1.67;;;1.50;;
43098;SDS011;28715;51.988;6.020;2023-05-01T21:36:38;18.53;;;1.97;;
43098;SDS011;28715;51.988;6.020;2023-05-01T21:39:07;12.32;;;3.63;;